createdAt,value
2022-08-30T00:00:02.406Z,9.05
2022-08-30T00:02:36.126Z,9.70
2022-08-30T00:05:05.234Z,9.68
2022-08-30T00:07:33.425Z,9.38
2022-08-30T00:10:01.895Z,9.07
2022-08-30T00:12:31.924Z,9.55
2022-08-30T00:15:00.537Z,9.13
2022-08-30T00:17:29.021Z,9.30
2022-08-30T00:19:59.182Z,9.82
2022-08-30T00:22:27.449Z,10.45
2022-08-30T00:24:55.760Z,10.48
2022-08-30T00:27:24.043Z,8.85
2022-08-30T00:29:52.313Z,9.25
2022-08-30T00:32:21.498Z,9.82
2022-08-30T00:34:50.062Z,9.75
2022-08-30T00:37:20.242Z,9.10
2022-08-30T00:39:49.015Z,9.65
2022-08-30T00:42:18.626Z,9.63
2022-08-30T00:44:47.503Z,8.63
2022-08-30T00:47:16.044Z,9.25
2022-08-30T00:49:49.045Z,9.57
2022-08-30T00:52:21.802Z,9.85
2022-08-30T00:54:52.546Z,9.68
2022-08-30T00:57:21.595Z,9.35
2022-08-30T00:59:51.639Z,8.88
2022-08-30T01:02:23.833Z,9.25
2022-08-30T01:04:53.061Z,8.77
2022-08-30T01:07:22.816Z,9.30
2022-08-30T01:09:51.301Z,9.60
2022-08-30T01:12:19.702Z,9.13
2022-08-30T01:14:48.559Z,8.75
2022-08-30T01:17:17.414Z,9.35
2022-08-30T01:19:53.873Z,9.20
2022-08-30T01:22:29.792Z,9.82
2022-08-30T01:25:01.567Z,9.02
2022-08-30T01:27:32.225Z,9.07
2022-08-30T01:30:00.836Z,9.23
2022-08-30T01:32:30.465Z,9.90
2022-08-30T01:34:59.520Z,9.05
2022-08-30T01:37:31.891Z,9.57
2022-08-30T01:40:02.002Z,9.32
2022-08-30T01:42:30.434Z,9.63
2022-08-30T01:44:58.753Z,8.40
2022-08-30T01:47:27.502Z,8.82
2022-08-30T01:49:56.091Z,9.65
2022-08-30T01:52:25.021Z,9.73
2022-08-30T01:54:54.368Z,9.50
2022-08-30T01:57:26.910Z,8.55
2022-08-30T01:59:55.451Z,9.02
2022-08-30T02:02:27.051Z,8.80
2022-08-30T02:07:24.068Z,9.00
2022-08-30T02:09:53.033Z,8.80
2022-08-30T02:12:23.057Z,7.90
2022-08-30T02:14:51.383Z,8.43
2022-08-30T02:17:20.116Z,8.70
2022-08-30T02:19:48.441Z,8.95
2022-08-30T02:22:17.202Z,8.75
2022-08-30T02:24:45.553Z,8.20
2022-08-30T02:27:13.862Z,9.10
2022-08-30T02:29:43.672Z,8.23
2022-08-30T02:32:12.059Z,8.88
2022-08-30T02:34:40.262Z,9.02
2022-08-30T02:37:09.115Z,8.43
2022-08-30T02:39:37.750Z,9.10
2022-08-30T02:42:06.737Z,9.02
2022-08-30T02:44:34.994Z,9.07
2022-08-30T02:47:05.121Z,8.85
2022-08-30T02:49:34.261Z,8.25
2022-08-30T02:52:04.235Z,8.70
2022-08-30T02:54:33.528Z,8.15
2022-08-30T02:57:05.007Z,8.55
2022-08-30T03:02:02.023Z,8.20
2022-08-30T03:04:31.804Z,8.63
2022-08-30T03:07:00.137Z,8.50
2022-08-30T03:09:28.650Z,7.90
2022-08-30T03:11:57.071Z,8.52
2022-08-30T03:14:25.492Z,8.27
2022-08-30T03:16:54.175Z,8.85
2022-08-30T03:19:22.943Z,8.57
2022-08-30T03:21:53.255Z,8.82
2022-08-30T03:24:22.023Z,7.88
2022-08-30T03:26:50.246Z,8.93
2022-08-30T03:29:18.561Z,8.60
2022-08-30T03:31:53.149Z,8.32
2022-08-30T03:34:22.804Z,7.97
2022-08-30T03:36:53.200Z,8.07
2022-08-30T03:39:22.665Z,8.07
2022-08-30T03:41:50.914Z,8.20
2022-08-30T03:44:20.322Z,7.75
2022-08-30T03:46:50.108Z,7.80
2022-08-30T03:49:18.537Z,7.70
2022-08-30T03:51:47.545Z,8.48
2022-08-30T03:54:17.300Z,7.70
2022-08-30T03:56:45.826Z,7.95
2022-08-30T03:59:14.402Z,8.15
2022-08-30T04:01:43.137Z,7.80
2022-08-30T04:04:12.212Z,8.07
2022-08-30T04:06:40.529Z,7.80
2022-08-30T04:09:08.822Z,8.05
2022-08-30T04:11:38.613Z,7.63
2022-08-30T04:14:06.949Z,8.38
2022-08-30T04:16:35.397Z,7.97
2022-08-30T04:19:04.152Z,8.10
2022-08-30T04:21:32.766Z,8.30
2022-08-30T04:24:03.796Z,7.10
2022-08-30T04:26:32.066Z,7.78
2022-08-30T04:29:01.697Z,7.63
2022-08-30T04:31:30.371Z,7.72
2022-08-30T04:33:58.801Z,7.95
2022-08-30T04:36:27.407Z,7.90
2022-08-30T04:38:55.747Z,8.43
2022-08-30T04:41:24.606Z,7.57
2022-08-30T04:43:53.082Z,7.57
2022-08-30T04:46:22.822Z,7.88
2022-08-30T04:48:51.299Z,8.43
2022-08-30T04:51:20.164Z,7.60
2022-08-30T04:53:48.439Z,7.97
2022-08-30T04:56:19.657Z,7.63
2022-08-30T04:58:49.232Z,7.60
2022-08-30T05:01:20.522Z,7.80
2022-08-30T05:03:54.809Z,9.00
2022-08-30T05:06:24.564Z,9.35
2022-08-30T05:08:53.893Z,9.13
2022-08-30T05:11:23.102Z,7.75
2022-08-30T05:13:51.684Z,8.13
2022-08-30T05:16:20.227Z,9.10
2022-08-30T05:18:50.746Z,9.00
2022-08-30T05:21:22.862Z,8.32
2022-08-30T05:23:53.872Z,8.45
2022-08-30T05:26:25.120Z,7.68
2022-08-30T05:28:53.851Z,7.88
2022-08-30T05:31:25.571Z,8.32
2022-08-30T05:33:55.393Z,7.45
2022-08-30T05:36:28.264Z,8.10
2022-08-30T05:38:57.010Z,7.57
2022-08-30T05:41:27.244Z,7.97
2022-08-30T05:43:56.558Z,8.23
2022-08-30T05:46:25.670Z,7.72
2022-08-30T05:48:54.172Z,7.95
2022-08-30T05:51:25.643Z,8.15
2022-08-30T05:53:54.971Z,7.18
2022-08-30T05:56:26.019Z,8.07
2022-08-30T05:58:55.032Z,8.00
2022-08-30T06:01:25.344Z,8.35
2022-08-30T06:03:54.638Z,8.35
2022-08-30T06:06:24.531Z,7.00
2022-08-30T06:08:53.563Z,7.70
2022-08-30T06:11:23.363Z,7.70
2022-08-30T06:13:53.714Z,6.90
2022-08-30T06:16:24.537Z,7.40
2022-08-30T06:18:53.115Z,7.50
2022-08-30T06:21:23.612Z,7.20
2022-08-30T06:23:54.525Z,7.20
2022-08-30T06:26:23.643Z,8.13
2022-08-30T06:28:52.320Z,7.82
2022-08-30T06:31:22.103Z,7.15
2022-08-30T06:33:51.018Z,7.60
2022-08-30T06:36:21.229Z,7.63
2022-08-30T06:38:53.205Z,7.82
2022-08-30T06:41:23.837Z,8.18
2022-08-30T06:43:52.427Z,7.80
2022-08-30T06:46:22.902Z,7.18
2022-08-30T06:48:51.801Z,6.82
2022-08-30T06:51:21.408Z,8.35
2022-08-30T06:53:50.260Z,7.55
2022-08-30T06:56:22.198Z,7.80
2022-08-30T06:58:51.601Z,7.57
2022-08-30T07:01:23.119Z,6.78
2022-08-30T07:03:51.935Z,7.80
2022-08-30T07:06:20.964Z,7.40
2022-08-30T07:08:50.015Z,7.38
2022-08-30T07:11:32.106Z,7.38
2022-08-30T07:14:00.995Z,7.20
2022-08-30T07:16:29.599Z,7.53
2022-08-30T07:18:58.713Z,7.88
2022-08-30T07:21:29.231Z,7.70
2022-08-30T07:23:58.778Z,8.13
2022-08-30T07:26:31.567Z,7.35
2022-08-30T07:29:00.675Z,7.57
2022-08-30T07:31:29.852Z,6.93
2022-08-30T07:33:58.406Z,8.88
2022-08-30T07:36:26.719Z,8.25
2022-08-30T07:38:55.613Z,7.40
2022-08-30T07:41:26.830Z,7.63
2022-08-30T07:43:57.880Z,7.20
2022-08-30T07:46:27.499Z,7.53
2022-08-30T07:48:56.216Z,7.75
2022-08-30T07:51:28.113Z,7.18
2022-08-30T07:53:57.972Z,8.00
2022-08-30T07:56:26.503Z,7.85
2022-08-30T07:58:56.155Z,7.45
2022-08-30T08:01:25.365Z,7.90
2022-08-30T08:03:53.861Z,8.07
2022-08-30T08:06:24.304Z,8.32
2022-08-30T08:08:54.391Z,8.73
2022-08-30T08:11:28.332Z,8.15
2022-08-30T08:13:58.987Z,9.32
2022-08-30T08:16:32.614Z,8.15
2022-08-30T08:19:01.070Z,9.07
2022-08-30T08:21:29.643Z,8.95
2022-08-30T08:23:58.065Z,10.00
2022-08-30T08:26:27.008Z,9.05
2022-08-30T08:28:55.515Z,9.07
2022-08-30T08:31:29.874Z,9.52
2022-08-30T08:34:03.407Z,9.00
2022-08-30T08:36:32.617Z,9.13
2022-08-30T08:39:01.064Z,9.60
2022-08-30T08:41:41.952Z,9.40
2022-08-30T08:44:16.125Z,9.17
2022-08-30T08:46:54.098Z,9.60
2022-08-30T08:49:22.391Z,9.80
2022-08-30T08:52:08.698Z,9.82
2022-08-30T08:54:44.111Z,9.40
2022-08-30T08:57:15.985Z,9.45
2022-08-30T08:59:45.585Z,9.95
2022-08-30T09:02:24.135Z,8.90
2022-08-30T09:04:55.932Z,9.57
2022-08-30T09:07:27.878Z,9.57
2022-08-30T09:09:58.120Z,9.15
2022-08-30T09:12:26.396Z,8.73
2022-08-30T09:14:56.974Z,9.00
2022-08-30T09:17:29.687Z,8.85
2022-08-30T09:20:02.603Z,8.55
2022-08-30T09:22:36.626Z,9.10
2022-08-30T09:25:08.419Z,8.80
2022-08-30T09:30:14.207Z,9.25
2022-08-30T09:32:53.094Z,8.80
2022-08-30T09:35:27.604Z,9.45
2022-08-30T09:37:57.863Z,8.95
2022-08-30T09:40:33.728Z,8.88
2022-08-30T09:43:06.212Z,8.43
2022-08-30T09:45:37.177Z,8.88
2022-08-30T09:48:33.028Z,8.32
2022-08-30T09:51:23.101Z,9.02
2022-08-30T09:54:17.333Z,8.82
2022-08-30T09:57:01.035Z,8.50
2022-08-30T09:59:42.338Z,8.13
2022-08-30T10:02:34.502Z,8.45
2022-08-30T10:05:09.089Z,8.80
2022-08-30T10:07:47.617Z,8.75
2022-08-30T10:10:20.624Z,8.48
2022-08-30T10:12:58.644Z,8.68
2022-08-30T10:15:30.995Z,9.02
2022-08-30T10:18:08.149Z,8.23
2022-08-30T10:20:44.248Z,9.48
2022-08-30T10:23:17.991Z,7.85
2022-08-30T10:25:51.017Z,7.00
2022-08-30T10:28:28.360Z,8.18
2022-08-30T10:31:02.586Z,8.07
2022-08-30T10:33:36.626Z,8.05
2022-08-30T10:36:11.752Z,8.23
2022-08-30T10:38:42.252Z,8.23
2022-08-30T10:41:21.295Z,8.68
2022-08-30T10:43:57.272Z,8.57
2022-08-30T10:46:32.620Z,7.93
2022-08-30T10:49:03.891Z,7.80
2022-08-30T10:51:37.784Z,7.85
2022-08-30T10:54:18.521Z,8.75
2022-08-30T10:56:51.451Z,7.60
2022-08-30T10:59:20.721Z,7.90
2022-08-30T11:02:21.407Z,8.05
2022-08-30T11:05:09.472Z,8.23
2022-08-30T11:07:49.417Z,8.27
2022-08-30T11:10:39.392Z,8.02
2022-08-30T11:13:12.345Z,8.35
2022-08-30T11:15:56.475Z,8.65
2022-08-30T11:18:27.426Z,8.52
2022-08-30T11:21:17.009Z,8.10
2022-08-30T11:24:01.736Z,8.25
2022-08-30T11:26:57.518Z,8.18
2022-08-30T11:29:32.744Z,7.78
2022-08-30T11:32:21.008Z,7.45
2022-08-30T11:34:57.489Z,7.43
2022-08-30T11:37:38.668Z,7.78
2022-08-30T11:40:27.727Z,7.70
2022-08-30T11:42:57.539Z,8.20
2022-08-30T11:45:52.552Z,7.95
2022-08-30T11:48:53.708Z,7.93
2022-08-30T11:52:08.397Z,8.90
2022-08-30T11:54:53.109Z,7.80
2022-08-30T11:57:31.257Z,8.38
2022-08-30T12:00:07.954Z,8.30
2022-08-30T12:02:55.259Z,7.82
2022-08-30T12:05:53.838Z,8.40
2022-08-30T12:08:47.670Z,7.95
2022-08-30T12:12:02.470Z,8.10
2022-08-30T12:14:44.592Z,8.13
2022-08-30T12:17:48.550Z,8.60
2022-08-30T12:20:28.411Z,7.38
2022-08-30T12:22:58.886Z,7.80
2022-08-30T12:25:31.125Z,8.00
2022-08-30T12:28:14.964Z,8.18
2022-08-30T12:30:46.829Z,7.60
2022-08-30T12:33:29.604Z,7.63
2022-08-30T12:35:59.632Z,7.78
2022-08-30T12:38:29.823Z,7.72
2022-08-30T12:41:01.964Z,8.45
2022-08-30T12:43:38.947Z,8.30
2022-08-30T12:46:15.170Z,7.85
2022-08-30T12:48:44.982Z,7.45
2022-08-30T12:51:29.248Z,7.93
2022-08-30T12:54:07.041Z,8.18
2022-08-30T12:56:54.667Z,8.23
2022-08-30T12:59:54.181Z,7.93
2022-08-30T13:02:30.086Z,8.38
2022-08-30T13:04:59.428Z,7.90
2022-08-30T13:07:32.769Z,7.63
2022-08-30T13:10:19.545Z,7.80
2022-08-30T13:13:06.373Z,7.80
2022-08-30T13:15:42.027Z,8.13
2022-08-30T13:18:29.952Z,8.32
2022-08-30T13:21:22.378Z,8.20
2022-08-30T13:23:51.797Z,8.50
2022-08-30T13:26:23.050Z,8.25
2022-08-30T13:31:22.452Z,8.23
2022-08-30T13:33:53.708Z,7.70
2022-08-30T13:36:24.651Z,8.93
2022-08-30T13:38:53.349Z,8.55
2022-08-30T13:41:21.854Z,7.85
2022-08-30T13:46:42.673Z,8.02
2022-08-30T13:52:20.343Z,8.93
2022-08-30T13:54:50.183Z,8.43
2022-08-30T14:00:14.473Z,7.97
2022-08-30T14:02:50.135Z,9.05
2022-08-30T14:05:47.503Z,8.05
2022-08-30T14:11:03.802Z,8.13
2022-08-30T14:13:33.133Z,8.02
2022-08-30T14:18:53.691Z,8.15
2022-08-30T14:21:24.751Z,8.05
2022-08-30T14:23:53.625Z,8.40
2022-08-30T14:26:24.370Z,8.25
2022-08-30T14:28:54.980Z,8.20
2022-08-30T14:31:23.307Z,8.48
2022-08-30T14:33:51.923Z,8.00
2022-08-30T14:36:20.706Z,7.43
2022-08-30T14:38:50.539Z,7.60
2022-08-30T14:41:20.138Z,7.93
2022-08-30T14:43:48.530Z,8.35
2022-08-30T14:46:17.117Z,7.88
2022-08-30T14:48:45.462Z,7.47
2022-08-30T14:51:16.985Z,7.82
2022-08-30T14:53:45.866Z,8.02
2022-08-30T14:56:19.643Z,8.20
2022-08-30T14:58:50.060Z,8.27
2022-08-30T15:01:19.811Z,7.25
2022-08-30T15:03:48.202Z,7.00
2022-08-30T15:06:16.907Z,7.53
2022-08-30T15:08:47.637Z,6.97
2022-08-30T15:11:20.075Z,7.70
2022-08-30T15:13:48.755Z,7.43
2022-08-30T15:16:20.480Z,7.65
2022-08-30T15:21:24.035Z,6.72
2022-08-30T15:23:52.980Z,7.43
2022-08-30T15:26:22.764Z,7.55
2022-08-30T15:28:51.395Z,6.55
2022-08-30T15:31:21.071Z,6.97
2022-08-30T15:33:51.407Z,6.57
2022-08-30T15:36:19.747Z,6.45
2022-08-30T15:38:48.233Z,6.90
2022-08-30T15:41:16.867Z,6.78
2022-08-30T15:43:46.526Z,6.40
2022-08-30T15:46:22.526Z,7.30
2022-08-30T15:48:52.984Z,6.22
2022-08-30T15:51:22.048Z,6.60
2022-08-30T15:53:52.632Z,6.80
2022-08-30T15:56:21.442Z,6.55
2022-08-30T15:58:53.062Z,7.78
2022-08-30T16:01:30.325Z,6.43
2022-08-30T16:06:37.234Z,6.75
2022-08-30T16:09:06.859Z,7.30
2022-08-30T16:11:35.857Z,6.40
2022-08-30T16:14:06.930Z,6.78
2022-08-30T16:16:37.604Z,6.68
2022-08-30T16:19:06.223Z,6.93
2022-08-30T16:21:36.886Z,7.00
2022-08-30T16:24:07.337Z,6.75
2022-08-30T16:26:39.369Z,6.47
2022-08-30T16:29:09.521Z,6.43
2022-08-30T16:31:38.422Z,6.80
2022-08-30T16:34:07.837Z,6.38
2022-08-30T16:36:36.880Z,7.32
2022-08-30T16:39:08.389Z,6.35
2022-08-30T16:41:37.968Z,7.00
2022-08-30T16:44:08.493Z,6.80
2022-08-30T16:46:37.743Z,6.35
2022-08-30T16:49:06.755Z,6.93
2022-08-30T16:51:38.456Z,5.93
2022-08-30T16:54:08.295Z,6.93
2022-08-30T16:56:38.535Z,6.53
2022-08-30T16:59:11.355Z,6.45
2022-08-30T17:01:42.314Z,7.30
2022-08-30T17:04:12.982Z,7.88
2022-08-30T17:06:44.131Z,8.30
2022-08-30T17:09:12.433Z,8.45
2022-08-30T17:11:41.561Z,8.70
2022-08-30T17:14:11.498Z,9.55
2022-08-30T17:16:41.419Z,9.23
2022-08-30T17:19:11.676Z,10.13
2022-08-30T17:21:39.981Z,10.27
2022-08-30T17:24:08.502Z,10.73
2022-08-30T17:26:38.411Z,9.45
2022-08-30T17:29:07.743Z,9.50
2022-08-30T17:31:38.880Z,9.77
2022-08-30T17:34:07.489Z,10.15
2022-08-30T17:36:37.227Z,9.38
2022-08-30T17:39:11.089Z,9.65
2022-08-30T17:41:45.194Z,10.20
2022-08-30T17:44:19.568Z,8.63
2022-08-30T17:46:49.345Z,8.45
2022-08-30T17:49:17.755Z,9.15
2022-08-30T17:51:47.682Z,9.30
2022-08-30T17:54:18.020Z,65.50
2022-08-30T17:56:46.375Z,184.48
2022-08-30T17:59:16.128Z,189.10
2022-08-30T18:01:45.486Z,230.05
2022-08-30T18:04:19.659Z,243.30
2022-08-30T18:06:49.363Z,209.20
2022-08-30T18:09:18.020Z,194.15
2022-08-30T18:11:46.382Z,169.20
2022-08-30T18:14:17.604Z,137.55
2022-08-30T18:16:54.268Z,120.07
2022-08-30T18:19:36.321Z,176.20
2022-08-30T18:22:14.260Z,185.90
2022-08-30T18:24:42.756Z,211.15
2022-08-30T18:27:11.091Z,242.52
2022-08-30T18:29:42.084Z,302.45
2022-08-30T18:32:11.616Z,159.70
2022-08-30T18:34:42.834Z,108.97
2022-08-30T18:37:12.470Z,113.88
2022-08-30T18:39:41.324Z,116.25
2022-08-30T18:42:10.417Z,119.68
2022-08-30T18:44:39.899Z,102.53
2022-08-30T18:47:09.451Z,117.00
2022-08-30T18:49:38.420Z,108.15
2022-08-30T18:52:10.002Z,111.00
2022-08-30T18:54:40.471Z,110.57
2022-08-30T18:57:10.229Z,122.07
2022-08-30T18:59:38.940Z,116.40
2022-08-30T19:02:12.653Z,110.40
2022-08-30T19:04:42.775Z,109.03
2022-08-30T19:07:14.829Z,99.80
2022-08-30T19:09:43.732Z,73.00
2022-08-30T19:12:14.489Z,76.22
2022-08-30T19:14:43.090Z,55.95
2022-08-30T19:17:11.962Z,61.33
2022-08-30T19:19:48.556Z,63.65
2022-08-30T19:22:21.983Z,58.50
2022-08-30T19:24:51.301Z,59.75
2022-08-30T19:27:37.319Z,60.05
2022-08-30T19:30:09.166Z,71.32
2022-08-30T19:32:37.647Z,63.63
2022-08-30T19:35:06.671Z,51.03
2022-08-30T19:37:36.738Z,49.08
2022-08-30T19:40:08.172Z,38.30
2022-08-30T19:42:41.801Z,34.22
2022-08-30T19:45:18.208Z,38.38
2022-08-30T19:47:47.145Z,31.42
2022-08-30T19:50:16.137Z,25.98
2022-08-30T19:52:52.643Z,64.47
2022-08-30T19:55:37.078Z,150.07
2022-08-30T19:58:05.625Z,138.43
2022-08-30T20:00:33.838Z,153.18
2022-08-30T20:03:05.789Z,139.60
2022-08-30T20:05:34.945Z,98.65
2022-08-30T20:08:05.678Z,94.63
2022-08-30T20:10:34.407Z,85.37
2022-08-30T20:13:02.883Z,105.85
2022-08-30T20:15:33.547Z,213.57
2022-08-30T20:18:05.825Z,198.60
2022-08-30T20:20:49.837Z,218.13
2022-08-30T20:23:22.740Z,100.40
2022-08-30T20:25:51.924Z,80.10
2022-08-30T20:28:20.579Z,70.10
2022-08-30T20:30:49.315Z,69.93
2022-08-30T20:33:17.679Z,70.32
2022-08-30T20:35:49.350Z,69.00
2022-08-30T20:38:21.941Z,52.22
2022-08-30T20:40:52.434Z,61.40
2022-08-30T20:43:22.386Z,37.88
2022-08-30T20:45:51.172Z,35.10
2022-08-30T20:48:19.889Z,30.90
2022-08-30T20:50:48.639Z,35.53
2022-08-30T20:53:17.383Z,25.38
2022-08-30T20:55:48.743Z,21.95
2022-08-30T20:58:17.760Z,23.08
2022-08-30T21:00:51.215Z,20.08
2022-08-30T21:03:26.378Z,16.50
2022-08-30T21:05:57.370Z,16.55
2022-08-30T21:08:26.049Z,14.48
2022-08-30T21:10:56.068Z,12.13
2022-08-30T21:13:24.820Z,12.18
2022-08-30T21:15:54.777Z,12.23
2022-08-30T21:18:25.898Z,11.45
2022-08-30T21:20:54.548Z,11.40
2022-08-30T21:23:23.162Z,10.82
2022-08-30T21:25:51.801Z,10.43
2022-08-30T21:28:21.817Z,10.68
2022-08-30T21:30:50.488Z,10.45
2022-08-30T21:33:19.221Z,11.40
2022-08-30T21:36:05.477Z,10.32
2022-08-30T21:38:34.109Z,11.15
2022-08-30T21:41:03.585Z,10.27
2022-08-30T21:43:33.549Z,10.60
2022-08-30T21:46:06.710Z,10.00
2022-08-30T21:48:37.400Z,10.48
2022-08-30T21:51:10.036Z,10.15
2022-08-30T21:53:39.069Z,10.05
2022-08-30T21:56:13.459Z,11.05
2022-08-30T21:58:47.567Z,11.07
2022-08-30T22:01:18.907Z,10.50
2022-08-30T22:03:47.402Z,11.25
2022-08-30T22:06:16.480Z,10.55
2022-08-30T22:08:46.591Z,11.38
2022-08-30T22:11:19.409Z,10.40
2022-08-30T22:13:50.688Z,10.63
2022-08-30T22:16:21.747Z,11.00
2022-08-30T22:18:50.144Z,10.35
2022-08-30T22:21:22.284Z,10.85
2022-08-30T22:23:50.789Z,11.18
2022-08-30T22:26:20.661Z,9.82
2022-08-30T22:28:50.389Z,10.02
2022-08-30T22:31:19.931Z,10.55
2022-08-30T22:33:49.128Z,11.15
2022-08-30T22:36:20.984Z,10.30
2022-08-30T22:38:52.549Z,10.95
2022-08-30T22:41:25.453Z,10.32
2022-08-30T22:43:55.547Z,10.77
2022-08-30T22:46:29.608Z,11.27
2022-08-30T22:49:02.895Z,11.15
2022-08-30T22:51:31.169Z,10.57
2022-08-30T22:54:00.857Z,11.13
2022-08-30T22:56:30.787Z,10.80
2022-08-30T22:59:00.547Z,11.52
2022-08-30T23:01:31.847Z,11.45
2022-08-30T23:04:01.393Z,12.10
2022-08-30T23:06:30.606Z,11.45
2022-08-30T23:08:59.366Z,11.85
2022-08-30T23:11:27.947Z,12.00
2022-08-30T23:14:00.272Z,12.82
2022-08-30T23:16:28.688Z,12.15
2022-08-30T23:18:57.106Z,11.73
2022-08-30T23:21:28.444Z,11.77
2022-08-30T23:24:15.505Z,12.25
2022-08-30T23:27:03.345Z,12.20
2022-08-30T23:29:51.712Z,11.25
2022-08-30T23:32:38.226Z,11.65
2022-08-30T23:35:29.523Z,11.30
2022-08-30T23:38:16.327Z,11.57
2022-08-30T23:41:02.216Z,12.18
2022-08-30T23:43:48.097Z,11.07
2022-08-30T23:46:35.416Z,11.68
2022-08-30T23:49:21.330Z,12.00
2022-08-30T23:52:07.620Z,13.40
2022-08-30T23:54:55.763Z,11.48
2022-08-30T23:57:44.103Z,11.50
